sensor_id;sensor_type;location;lat;lon;timestamp;temperature;humidity
53208;DHT22;39093;52.788;6.940;2022-12-07T00:01:30;4.00;99.90
53208;DHT22;39093;52.788;6.940;2022-12-07T00:03:59;3.90;99.90
53208;DHT22;39093;52.788;6.940;2022-12-07T00:06:36;3.90;99.90
53208;DHT22;39093;52.788;6.940;2022-12-07T00:09:05;3.90;99.90
53208;DHT22;39093;52.788;6.940;2022-12-07T00:11:34;3.90;99.90
53208;DHT22;39093;52.788;6.940;2022-12-07T00:14:04;3.90;99.90
53208;DHT22;39093;52.788;6.940;2022-12-07T00:16:33;3.80;99.90
53208;DHT22;39093;52.788;6.940;2022-12-07T00:19:02;3.70;99.90
53208;DHT22;39093;52.788;6.940;2022-12-07T00:21:33;3.70;99.90
53208;DHT22;39093;52.788;6.940;2022-12-07T00:24:07;3.70;99.90
53208;DHT22;39093;52.788;6.940;2022-12-07T00:26:36;3.70;99.90
53208;DHT22;39093;52.788;6.940;2022-12-07T00:29:18;3.70;99.90
53208;DHT22;39093;52.788;6.940;2022-12-07T00:31:51;3.60;99.90
53208;DHT22;39093;52.788;6.940;2022-12-07T00:34:20;3.60;99.90
53208;DHT22;39093;52.788;6.940;2022-12-07T00:36:50;3.60;99.90
53208;DHT22;39093;52.788;6.940;2022-12-07T00:39:17;3.60;99.90
53208;DHT22;39093;52.788;6.940;2022-12-07T00:41:44;3.50;99.90
53208;DHT22;39093;52.788;6.940;2022-12-07T00:44:11;3.50;99.90
53208;DHT22;39093;52.788;6.940;2022-12-07T00:46:38;3.50;99.90
53208;DHT22;39093;52.788;6.940;2022-12-07T00:49:05;3.50;99.90
53208;DHT22;39093;52.788;6.940;2022-12-07T00:51:32;3.50;99.90
53208;DHT22;39093;52.788;6.940;2022-12-07T00:53:59;3.50;99.90
53208;DHT22;39093;52.788;6.940;2022-12-07T00:56:27;3.50;99.90
53208;DHT22;39093;52.788;6.940;2022-12-07T00:59:02;3.50;99.90
53208;DHT22;39093;52.788;6.940;2022-12-07T01:01:32;3.50;99.90
53208;DHT22;39093;52.788;6.940;2022-12-07T01:03:59;3.50;99.90
53208;DHT22;39093;52.788;6.940;2022-12-07T01:06:28;3.50;99.90
53208;DHT22;39093;52.788;6.940;2022-12-07T01:08:55;3.50;99.90
53208;DHT22;39093;52.788;6.940;2022-12-07T01:11:24;3.50;99.90
53208;DHT22;39093;52.788;6.940;2022-12-07T01:13:54;3.40;99.90
53208;DHT22;39093;52.788;6.940;2022-12-07T01:16:23;3.40;99.90
53208;DHT22;39093;52.788;6.940;2022-12-07T01:18:52;3.40;99.90
53208;DHT22;39093;52.788;6.940;2022-12-07T01:21:21;3.40;99.90
53208;DHT22;39093;52.788;6.940;2022-12-07T01:23:49;3.40;99.90
53208;DHT22;39093;52.788;6.940;2022-12-07T01:26:19;3.40;99.90
53208;DHT22;39093;52.788;6.940;2022-12-07T01:28:47;3.30;99.90
53208;DHT22;39093;52.788;6.940;2022-12-07T01:31:16;3.30;99.90
53208;DHT22;39093;52.788;6.940;2022-12-07T01:33:45;3.30;99.90
53208;DHT22;39093;52.788;6.940;2022-12-07T01:36:18;3.30;99.90
53208;DHT22;39093;52.788;6.940;2022-12-07T01:38:46;3.40;99.90
53208;DHT22;39093;52.788;6.940;2022-12-07T01:41:14;3.50;99.90
53208;DHT22;39093;52.788;6.940;2022-12-07T01:44:09;3.40;99.90
53208;DHT22;39093;52.788;6.940;2022-12-07T01:46:36;3.40;99.90
53208;DHT22;39093;52.788;6.940;2022-12-07T01:49:06;3.40;99.90
53208;DHT22;39093;52.788;6.940;2022-12-07T01:51:35;3.40;99.90
53208;DHT22;39093;52.788;6.940;2022-12-07T01:54:03;3.40;99.90
53208;DHT22;39093;52.788;6.940;2022-12-07T01:56:31;3.40;99.90
53208;DHT22;39093;52.788;6.940;2022-12-07T01:59:00;3.30;99.90
53208;DHT22;39093;52.788;6.940;2022-12-07T02:01:27;3.30;99.90
53208;DHT22;39093;52.788;6.940;2022-12-07T02:03:55;3.30;99.90
53208;DHT22;39093;52.788;6.940;2022-12-07T02:06:24;3.20;99.90
53208;DHT22;39093;52.788;6.940;2022-12-07T02:08:52;3.20;99.90
53208;DHT22;39093;52.788;6.940;2022-12-07T02:11:20;3.20;99.90
53208;DHT22;39093;52.788;6.940;2022-12-07T02:13:47;3.20;99.90
53208;DHT22;39093;52.788;6.940;2022-12-07T02:16:25;3.20;99.90
53208;DHT22;39093;52.788;6.940;2022-12-07T02:27:58;3.20;99.90
53208;DHT22;39093;52.788;6.940;2022-12-07T02:30:32;3.20;99.90
53208;DHT22;39093;52.788;6.940;2022-12-07T02:33:17;3.20;99.90
53208;DHT22;39093;52.788;6.940;2022-12-07T02:35:59;3.20;99.90
53208;DHT22;39093;52.788;6.940;2022-12-07T02:41:28;3.30;99.90
53208;DHT22;39093;52.788;6.940;2022-12-07T02:44:17;3.30;99.90
53208;DHT22;39093;52.788;6.940;2022-12-07T02:46:50;3.30;99.90
53208;DHT22;39093;52.788;6.940;2022-12-07T02:49:22;3.30;99.90
53208;DHT22;39093;52.788;6.940;2022-12-07T02:51:52;3.30;99.90
53208;DHT22;39093;52.788;6.940;2022-12-07T02:54:20;3.30;99.90
53208;DHT22;39093;52.788;6.940;2022-12-07T02:56:52;3.30;99.90
53208;DHT22;39093;52.788;6.940;2022-12-07T03:18:46;3.20;99.90
53208;DHT22;39093;52.788;6.940;2022-12-07T03:21:18;3.20;99.90
53208;DHT22;39093;52.788;6.940;2022-12-07T03:23:51;3.20;99.90
53208;DHT22;39093;52.788;6.940;2022-12-07T03:26:19;3.20;99.90
53208;DHT22;39093;52.788;6.940;2022-12-07T03:28:52;3.20;99.90
53208;DHT22;39093;52.788;6.940;2022-12-07T03:31:25;3.20;99.90
53208;DHT22;39093;52.788;6.940;2022-12-07T03:34:03;3.20;99.90
53208;DHT22;39093;52.788;6.940;2022-12-07T03:41:41;3.20;99.90
53208;DHT22;39093;52.788;6.940;2022-12-07T03:44:11;3.20;99.90
53208;DHT22;39093;52.788;6.940;2022-12-07T03:49:34;3.30;99.90
53208;DHT22;39093;52.788;6.940;2022-12-07T03:57:29;3.20;99.90
53208;DHT22;39093;52.788;6.940;2022-12-07T03:59:57;3.20;99.90
53208;DHT22;39093;52.788;6.940;2022-12-07T04:02:26;3.20;99.90
53208;DHT22;39093;52.788;6.940;2022-12-07T04:04:55;3.20;99.90
53208;DHT22;39093;52.788;6.940;2022-12-07T04:07:22;3.20;99.90
53208;DHT22;39093;52.788;6.940;2022-12-07T04:09:49;3.20;99.90
53208;DHT22;39093;52.788;6.940;2022-12-07T04:12:16;3.30;99.90
53208;DHT22;39093;52.788;6.940;2022-12-07T04:14:43;3.20;99.90
53208;DHT22;39093;52.788;6.940;2022-12-07T04:17:09;3.20;99.90
53208;DHT22;39093;52.788;6.940;2022-12-07T04:19:36;3.20;99.90
53208;DHT22;39093;52.788;6.940;2022-12-07T04:22:04;3.20;99.90
53208;DHT22;39093;52.788;6.940;2022-12-07T04:24:32;3.20;99.90
53208;DHT22;39093;52.788;6.940;2022-12-07T04:26:59;3.20;99.90
53208;DHT22;39093;52.788;6.940;2022-12-07T04:29:26;3.20;99.90
53208;DHT22;39093;52.788;6.940;2022-12-07T04:31:53;3.20;99.90
53208;DHT22;39093;52.788;6.940;2022-12-07T04:34:20;3.20;99.90
53208;DHT22;39093;52.788;6.940;2022-12-07T04:36:48;3.10;99.90
53208;DHT22;39093;52.788;6.940;2022-12-07T04:39:24;3.20;99.90
53208;DHT22;39093;52.788;6.940;2022-12-07T04:41:52;3.10;99.90
53208;DHT22;39093;52.788;6.940;2022-12-07T04:44:19;3.10;99.90
53208;DHT22;39093;52.788;6.940;2022-12-07T04:46:47;3.00;99.90
53208;DHT22;39093;52.788;6.940;2022-12-07T04:49:15;3.00;99.90
53208;DHT22;39093;52.788;6.940;2022-12-07T04:51:42;3.00;99.90
53208;DHT22;39093;52.788;6.940;2022-12-07T04:54:10;2.90;99.90
53208;DHT22;39093;52.788;6.940;2022-12-07T04:56:37;2.90;99.90
53208;DHT22;39093;52.788;6.940;2022-12-07T04:59:05;2.90;99.90
53208;DHT22;39093;52.788;6.940;2022-12-07T05:01:33;2.90;99.90
53208;DHT22;39093;52.788;6.940;2022-12-07T05:04:00;2.80;99.90
53208;DHT22;39093;52.788;6.940;2022-12-07T05:06:27;2.80;99.90
53208;DHT22;39093;52.788;6.940;2022-12-07T05:08:54;2.80;99.90
53208;DHT22;39093;52.788;6.940;2022-12-07T05:11:21;2.70;99.90
53208;DHT22;39093;52.788;6.940;2022-12-07T05:14:18;2.60;99.90
53208;DHT22;39093;52.788;6.940;2022-12-07T05:16:48;2.70;99.90
53208;DHT22;39093;52.788;6.940;2022-12-07T05:19:16;2.60;99.90
53208;DHT22;39093;52.788;6.940;2022-12-07T05:21:43;2.80;99.90
53208;DHT22;39093;52.788;6.940;2022-12-07T05:24:12;2.60;99.90
53208;DHT22;39093;52.788;6.940;2022-12-07T05:26:39;2.70;99.90
53208;DHT22;39093;52.788;6.940;2022-12-07T05:29:07;2.60;99.90
53208;DHT22;39093;52.788;6.940;2022-12-07T05:31:34;2.50;99.90
53208;DHT22;39093;52.788;6.940;2022-12-07T05:34:01;2.50;99.90
53208;DHT22;39093;52.788;6.940;2022-12-07T05:36:28;2.50;99.90
53208;DHT22;39093;52.788;6.940;2022-12-07T05:38:58;2.50;99.90
53208;DHT22;39093;52.788;6.940;2022-12-07T05:41:25;2.60;99.90
53208;DHT22;39093;52.788;6.940;2022-12-07T05:44:10;2.60;99.90
53208;DHT22;39093;52.788;6.940;2022-12-07T05:46:37;2.60;99.90
53208;DHT22;39093;52.788;6.940;2022-12-07T05:49:04;2.60;99.90
53208;DHT22;39093;52.788;6.940;2022-12-07T05:51:31;2.70;99.90
53208;DHT22;39093;52.788;6.940;2022-12-07T05:53:57;2.70;99.90
53208;DHT22;39093;52.788;6.940;2022-12-07T05:56:24;2.80;99.90
53208;DHT22;39093;52.788;6.940;2022-12-07T05:58:53;2.80;99.90
53208;DHT22;39093;52.788;6.940;2022-12-07T06:01:38;2.80;99.90
53208;DHT22;39093;52.788;6.940;2022-12-07T06:04:05;2.80;99.90
53208;DHT22;39093;52.788;6.940;2022-12-07T06:06:32;2.90;99.90
53208;DHT22;39093;52.788;6.940;2022-12-07T06:08:59;2.80;99.90
53208;DHT22;39093;52.788;6.940;2022-12-07T06:11:26;2.70;99.90
53208;DHT22;39093;52.788;6.940;2022-12-07T06:14:12;2.70;99.90
53208;DHT22;39093;52.788;6.940;2022-12-07T06:16:39;2.60;99.90
53208;DHT22;39093;52.788;6.940;2022-12-07T06:19:06;2.60;99.90
53208;DHT22;39093;52.788;6.940;2022-12-07T06:21:33;2.60;99.90
53208;DHT22;39093;52.788;6.940;2022-12-07T06:24:00;2.60;99.90
53208;DHT22;39093;52.788;6.940;2022-12-07T06:26:27;2.60;99.90
53208;DHT22;39093;52.788;6.940;2022-12-07T06:28:54;2.60;99.90
53208;DHT22;39093;52.788;6.940;2022-12-07T06:31:21;2.60;99.90
53208;DHT22;39093;52.788;6.940;2022-12-07T06:33:48;2.60;99.90
53208;DHT22;39093;52.788;6.940;2022-12-07T06:36:15;2.60;99.90
53208;DHT22;39093;52.788;6.940;2022-12-07T06:38:42;2.50;99.90
53208;DHT22;39093;52.788;6.940;2022-12-07T06:41:09;2.50;99.90
53208;DHT22;39093;52.788;6.940;2022-12-07T06:43:36;2.50;99.90
53208;DHT22;39093;52.788;6.940;2022-12-07T06:46:03;2.50;99.90
53208;DHT22;39093;52.788;6.940;2022-12-07T06:48:29;2.50;99.90
53208;DHT22;39093;52.788;6.940;2022-12-07T06:50:56;2.50;99.90
53208;DHT22;39093;52.788;6.940;2022-12-07T06:53:23;2.50;99.90
53208;DHT22;39093;52.788;6.940;2022-12-07T06:55:50;2.50;99.90
53208;DHT22;39093;52.788;6.940;2022-12-07T06:58:17;2.50;99.90
53208;DHT22;39093;52.788;6.940;2022-12-07T07:00:45;2.40;99.90
53208;DHT22;39093;52.788;6.940;2022-12-07T07:03:12;2.40;99.90
53208;DHT22;39093;52.788;6.940;2022-12-07T07:05:39;2.40;99.90
53208;DHT22;39093;52.788;6.940;2022-12-07T07:08:06;2.40;99.90
53208;DHT22;39093;52.788;6.940;2022-12-07T07:10:49;2.40;99.90
53208;DHT22;39093;52.788;6.940;2022-12-07T07:13:16;2.30;99.90
53208;DHT22;39093;52.788;6.940;2022-12-07T07:15:43;2.30;99.90
53208;DHT22;39093;52.788;6.940;2022-12-07T07:18:10;2.40;99.90
53208;DHT22;39093;52.788;6.940;2022-12-07T07:20:37;2.40;99.90
53208;DHT22;39093;52.788;6.940;2022-12-07T07:23:05;2.40;99.90
53208;DHT22;39093;52.788;6.940;2022-12-07T07:25:32;2.50;99.90
53208;DHT22;39093;52.788;6.940;2022-12-07T07:27:59;2.50;99.90
53208;DHT22;39093;52.788;6.940;2022-12-07T07:30:26;2.50;99.90
53208;DHT22;39093;52.788;6.940;2022-12-07T07:33:01;2.60;99.90
53208;DHT22;39093;52.788;6.940;2022-12-07T07:35:29;2.60;99.90
53208;DHT22;39093;52.788;6.940;2022-12-07T07:37:56;2.70;99.90
53208;DHT22;39093;52.788;6.940;2022-12-07T07:40:24;2.60;99.90
53208;DHT22;39093;52.788;6.940;2022-12-07T07:42:52;2.70;99.90
53208;DHT22;39093;52.788;6.940;2022-12-07T07:45:21;2.70;99.90
53208;DHT22;39093;52.788;6.940;2022-12-07T07:47:49;2.70;99.90
53208;DHT22;39093;52.788;6.940;2022-12-07T07:50:16;2.80;99.90
53208;DHT22;39093;52.788;6.940;2022-12-07T07:52:43;2.70;99.90
53208;DHT22;39093;52.788;6.940;2022-12-07T07:55:11;2.70;99.90
53208;DHT22;39093;52.788;6.940;2022-12-07T07:57:39;2.70;99.90
53208;DHT22;39093;52.788;6.940;2022-12-07T08:00:12;2.60;99.90
53208;DHT22;39093;52.788;6.940;2022-12-07T08:02:41;2.70;99.90
53208;DHT22;39093;52.788;6.940;2022-12-07T08:05:10;2.60;99.90
53208;DHT22;39093;52.788;6.940;2022-12-07T08:07:39;2.60;99.90
53208;DHT22;39093;52.788;6.940;2022-12-07T08:10:07;2.70;99.90
53208;DHT22;39093;52.788;6.940;2022-12-07T08:12:37;2.70;99.90
53208;DHT22;39093;52.788;6.940;2022-12-07T08:15:25;2.70;99.90
53208;DHT22;39093;52.788;6.940;2022-12-07T08:17:52;2.80;99.90
53208;DHT22;39093;52.788;6.940;2022-12-07T08:20:20;2.80;99.90
53208;DHT22;39093;52.788;6.940;2022-12-07T08:22:46;2.80;99.90
53208;DHT22;39093;52.788;6.940;2022-12-07T08:25:13;2.80;99.90
53208;DHT22;39093;52.788;6.940;2022-12-07T08:27:40;2.80;99.90
53208;DHT22;39093;52.788;6.940;2022-12-07T08:30:07;2.80;99.90
53208;DHT22;39093;52.788;6.940;2022-12-07T08:32:35;2.80;99.90
53208;DHT22;39093;52.788;6.940;2022-12-07T08:35:02;2.70;99.90
53208;DHT22;39093;52.788;6.940;2022-12-07T08:37:29;2.80;99.90
53208;DHT22;39093;52.788;6.940;2022-12-07T08:39:55;2.70;99.90
53208;DHT22;39093;52.788;6.940;2022-12-07T08:42:22;2.70;99.90
53208;DHT22;39093;52.788;6.940;2022-12-07T08:44:54;2.80;99.90
53208;DHT22;39093;52.788;6.940;2022-12-07T08:47:21;2.70;99.90
53208;DHT22;39093;52.788;6.940;2022-12-07T08:49:49;2.70;99.90
53208;DHT22;39093;52.788;6.940;2022-12-07T08:52:17;2.90;99.90
53208;DHT22;39093;52.788;6.940;2022-12-07T08:54:44;2.70;99.90
53208;DHT22;39093;52.788;6.940;2022-12-07T08:57:12;2.80;99.90
53208;DHT22;39093;52.788;6.940;2022-12-07T08:59:39;2.70;99.90
53208;DHT22;39093;52.788;6.940;2022-12-07T09:02:06;2.80;99.90
53208;DHT22;39093;52.788;6.940;2022-12-07T09:04:33;2.80;99.90
53208;DHT22;39093;52.788;6.940;2022-12-07T09:07:00;2.80;99.90
53208;DHT22;39093;52.788;6.940;2022-12-07T09:09:27;2.80;99.90
53208;DHT22;39093;52.788;6.940;2022-12-07T09:11:54;2.80;99.90
53208;DHT22;39093;52.788;6.940;2022-12-07T09:14:21;3.00;99.90
53208;DHT22;39093;52.788;6.940;2022-12-07T09:16:48;2.90;99.90
53208;DHT22;39093;52.788;6.940;2022-12-07T09:19:15;3.00;99.90
53208;DHT22;39093;52.788;6.940;2022-12-07T09:21:42;3.00;99.90
53208;DHT22;39093;52.788;6.940;2022-12-07T09:24:08;3.20;99.90
53208;DHT22;39093;52.788;6.940;2022-12-07T09:26:35;3.30;99.90
53208;DHT22;39093;52.788;6.940;2022-12-07T09:29:03;3.40;99.90
53208;DHT22;39093;52.788;6.940;2022-12-07T09:31:30;3.40;99.90
53208;DHT22;39093;52.788;6.940;2022-12-07T09:33:59;3.40;99.90
53208;DHT22;39093;52.788;6.940;2022-12-07T09:36:27;3.40;99.90
53208;DHT22;39093;52.788;6.940;2022-12-07T09:38:54;3.40;99.90
53208;DHT22;39093;52.788;6.940;2022-12-07T09:41:23;3.30;99.90
53208;DHT22;39093;52.788;6.940;2022-12-07T09:43:51;3.30;99.90
53208;DHT22;39093;52.788;6.940;2022-12-07T09:46:20;3.30;99.90
53208;DHT22;39093;52.788;6.940;2022-12-07T09:48:49;3.30;99.90
53208;DHT22;39093;52.788;6.940;2022-12-07T09:51:22;3.30;99.90
53208;DHT22;39093;52.788;6.940;2022-12-07T09:53:53;3.40;99.90
53208;DHT22;39093;52.788;6.940;2022-12-07T09:56:21;3.50;99.90
53208;DHT22;39093;52.788;6.940;2022-12-07T09:58:49;3.50;99.90
53208;DHT22;39093;52.788;6.940;2022-12-07T10:01:21;3.60;99.90
53208;DHT22;39093;52.788;6.940;2022-12-07T10:03:55;3.70;99.90
53208;DHT22;39093;52.788;6.940;2022-12-07T10:06:25;3.80;99.90
53208;DHT22;39093;52.788;6.940;2022-12-07T10:08:52;3.80;99.90
53208;DHT22;39093;52.788;6.940;2022-12-07T10:11:19;3.90;99.90
53208;DHT22;39093;52.788;6.940;2022-12-07T10:13:48;4.00;99.90
53208;DHT22;39093;52.788;6.940;2022-12-07T10:18:54;4.10;99.90
53208;DHT22;39093;52.788;6.940;2022-12-07T10:21:25;4.10;99.90
53208;DHT22;39093;52.788;6.940;2022-12-07T10:26:37;4.40;99.90
53208;DHT22;39093;52.788;6.940;2022-12-07T10:29:34;4.40;99.90
53208;DHT22;39093;52.788;6.940;2022-12-07T10:34:41;4.40;99.90
53208;DHT22;39093;52.788;6.940;2022-12-07T10:37:20;4.40;99.90
53208;DHT22;39093;52.788;6.940;2022-12-07T10:39:49;4.40;99.90
53208;DHT22;39093;52.788;6.940;2022-12-07T10:42:20;4.50;99.90
53208;DHT22;39093;52.788;6.940;2022-12-07T10:44:50;4.50;99.90
53208;DHT22;39093;52.788;6.940;2022-12-07T11:01:42;4.50;99.90
53208;DHT22;39093;52.788;6.940;2022-12-07T11:07:22;4.50;99.90
53208;DHT22;39093;52.788;6.940;2022-12-07T11:10:02;4.60;99.90
53208;DHT22;39093;52.788;6.940;2022-12-07T11:18:21;4.60;99.90
53208;DHT22;39093;52.788;6.940;2022-12-07T11:21:13;4.60;99.90
53208;DHT22;39093;52.788;6.940;2022-12-07T11:24:01;4.40;99.90
53208;DHT22;39093;52.788;6.940;2022-12-07T11:37:30;4.70;99.90
53208;DHT22;39093;52.788;6.940;2022-12-07T11:42:42;4.70;99.90
53208;DHT22;39093;52.788;6.940;2022-12-07T11:45:20;4.70;99.90
53208;DHT22;39093;52.788;6.940;2022-12-07T11:48:33;4.70;99.90
53208;DHT22;39093;52.788;6.940;2022-12-07T11:50:54;4.80;99.90
53208;DHT22;39093;52.788;6.940;2022-12-07T11:53:27;4.90;99.90
53208;DHT22;39093;52.788;6.940;2022-12-07T12:01:39;4.90;99.90
53208;DHT22;39093;52.788;6.940;2022-12-07T12:06:40;5.00;99.90
53208;DHT22;39093;52.788;6.940;2022-12-07T12:12:30;5.00;99.90
53208;DHT22;39093;52.788;6.940;2022-12-07T12:21:00;4.90;99.90
53208;DHT22;39093;52.788;6.940;2022-12-07T12:26:05;5.10;99.90
53208;DHT22;39093;52.788;6.940;2022-12-07T12:28:52;5.10;99.90
53208;DHT22;39093;52.788;6.940;2022-12-07T12:33:50;5.30;99.90
53208;DHT22;39093;52.788;6.940;2022-12-07T12:36:25;5.20;99.90
53208;DHT22;39093;52.788;6.940;2022-12-07T12:41:52;5.40;99.90
53208;DHT22;39093;52.788;6.940;2022-12-07T12:47:02;5.40;99.90
53208;DHT22;39093;52.788;6.940;2022-12-07T12:55:02;5.50;99.90
53208;DHT22;39093;52.788;6.940;2022-12-07T12:57:38;5.50;99.90
53208;DHT22;39093;52.788;6.940;2022-12-07T13:00:18;5.40;99.90
53208;DHT22;39093;52.788;6.940;2022-12-07T13:02:54;5.40;99.90
53208;DHT22;39093;52.788;6.940;2022-12-07T13:05:23;5.30;99.90
53208;DHT22;39093;52.788;6.940;2022-12-07T13:08:01;5.30;99.90
53208;DHT22;39093;52.788;6.940;2022-12-07T13:10:36;5.30;99.90
53208;DHT22;39093;52.788;6.940;2022-12-07T13:31:40;5.30;99.90
53208;DHT22;39093;52.788;6.940;2022-12-07T13:34:28;5.40;99.90
53208;DHT22;39093;52.788;6.940;2022-12-07T13:36:56;5.50;99.90
53208;DHT22;39093;52.788;6.940;2022-12-07T13:39:25;5.50;99.90
53208;DHT22;39093;52.788;6.940;2022-12-07T13:41:55;5.50;99.90
53208;DHT22;39093;52.788;6.940;2022-12-07T13:44:25;5.40;99.90
53208;DHT22;39093;52.788;6.940;2022-12-07T13:47:06;5.60;99.90
53208;DHT22;39093;52.788;6.940;2022-12-07T13:49:45;5.40;99.90
53208;DHT22;39093;52.788;6.940;2022-12-07T13:52:29;5.40;99.90
53208;DHT22;39093;52.788;6.940;2022-12-07T13:57:32;5.40;99.90
53208;DHT22;39093;52.788;6.940;2022-12-07T14:00:06;5.40;99.90
53208;DHT22;39093;52.788;6.940;2022-12-07T14:05:34;5.30;99.90
53208;DHT22;39093;52.788;6.940;2022-12-07T14:08:02;5.30;99.90
53208;DHT22;39093;52.788;6.940;2022-12-07T14:10:55;5.20;99.90
53208;DHT22;39093;52.788;6.940;2022-12-07T14:13:35;5.10;99.90
53208;DHT22;39093;52.788;6.940;2022-12-07T14:16:20;5.10;99.90
53208;DHT22;39093;52.788;6.940;2022-12-07T14:18:49;5.10;99.90
53208;DHT22;39093;52.788;6.940;2022-12-07T14:21:18;5.30;99.90
53208;DHT22;39093;52.788;6.940;2022-12-07T14:23:45;5.00;99.90
53208;DHT22;39093;52.788;6.940;2022-12-07T14:26:28;4.90;99.90
53208;DHT22;39093;52.788;6.940;2022-12-07T14:31:47;4.90;99.90
53208;DHT22;39093;52.788;6.940;2022-12-07T14:34:15;4.80;99.90
53208;DHT22;39093;52.788;6.940;2022-12-07T14:36:42;4.80;99.90
53208;DHT22;39093;52.788;6.940;2022-12-07T14:39:08;4.80;99.90
53208;DHT22;39093;52.788;6.940;2022-12-07T14:41:39;4.80;99.90
53208;DHT22;39093;52.788;6.940;2022-12-07T14:44:20;4.70;99.90
53208;DHT22;39093;52.788;6.940;2022-12-07T14:46:50;4.70;99.90
53208;DHT22;39093;52.788;6.940;2022-12-07T14:49:37;4.60;99.90
53208;DHT22;39093;52.788;6.940;2022-12-07T14:52:05;4.60;99.90
53208;DHT22;39093;52.788;6.940;2022-12-07T14:54:55;4.60;99.90
53208;DHT22;39093;52.788;6.940;2022-12-07T14:57:23;4.60;99.90
53208;DHT22;39093;52.788;6.940;2022-12-07T14:59:50;4.60;99.90
53208;DHT22;39093;52.788;6.940;2022-12-07T15:02:17;4.60;99.90
53208;DHT22;39093;52.788;6.940;2022-12-07T15:04:44;4.50;99.90
53208;DHT22;39093;52.788;6.940;2022-12-07T15:07:19;4.50;99.90
53208;DHT22;39093;52.788;6.940;2022-12-07T15:09:47;4.40;99.90
53208;DHT22;39093;52.788;6.940;2022-12-07T15:12:15;4.40;99.90
53208;DHT22;39093;52.788;6.940;2022-12-07T15:14:42;4.40;99.90
53208;DHT22;39093;52.788;6.940;2022-12-07T15:17:11;4.40;99.90
53208;DHT22;39093;52.788;6.940;2022-12-07T15:19:53;4.30;99.90
53208;DHT22;39093;52.788;6.940;2022-12-07T15:22:20;4.30;99.90
53208;DHT22;39093;52.788;6.940;2022-12-07T15:24:47;4.30;99.90
53208;DHT22;39093;52.788;6.940;2022-12-07T15:27:14;4.30;99.90
53208;DHT22;39093;52.788;6.940;2022-12-07T15:29:41;4.30;99.90
53208;DHT22;39093;52.788;6.940;2022-12-07T15:32:07;4.20;99.90
53208;DHT22;39093;52.788;6.940;2022-12-07T15:34:34;4.20;99.90
53208;DHT22;39093;52.788;6.940;2022-12-07T15:37:07;4.20;99.90
53208;DHT22;39093;52.788;6.940;2022-12-07T15:39:36;4.20;99.90
53208;DHT22;39093;52.788;6.940;2022-12-07T15:42:03;4.20;99.90
53208;DHT22;39093;52.788;6.940;2022-12-07T15:44:30;4.10;99.90
53208;DHT22;39093;52.788;6.940;2022-12-07T15:47:15;4.10;99.90
53208;DHT22;39093;52.788;6.940;2022-12-07T15:49:42;4.30;99.90
53208;DHT22;39093;52.788;6.940;2022-12-07T15:52:09;4.10;99.90
53208;DHT22;39093;52.788;6.940;2022-12-07T15:54:36;4.10;99.90
53208;DHT22;39093;52.788;6.940;2022-12-07T15:57:03;4.10;99.90
53208;DHT22;39093;52.788;6.940;2022-12-07T15:59:30;4.10;99.90
53208;DHT22;39093;52.788;6.940;2022-12-07T16:01:57;4.20;99.90
53208;DHT22;39093;52.788;6.940;2022-12-07T16:04:27;4.20;99.90
53208;DHT22;39093;52.788;6.940;2022-12-07T16:06:54;4.20;99.90
53208;DHT22;39093;52.788;6.940;2022-12-07T16:09:21;4.10;99.90
53208;DHT22;39093;52.788;6.940;2022-12-07T16:11:48;4.10;99.90
53208;DHT22;39093;52.788;6.940;2022-12-07T16:14:17;4.10;99.90
53208;DHT22;39093;52.788;6.940;2022-12-07T16:16:44;4.00;99.90
53208;DHT22;39093;52.788;6.940;2022-12-07T16:19:11;4.10;99.90
53208;DHT22;39093;52.788;6.940;2022-12-07T16:21:38;4.00;99.90
53208;DHT22;39093;52.788;6.940;2022-12-07T16:24:06;4.00;99.90
53208;DHT22;39093;52.788;6.940;2022-12-07T16:26:33;3.90;99.90
53208;DHT22;39093;52.788;6.940;2022-12-07T16:29:00;4.20;99.90
53208;DHT22;39093;52.788;6.940;2022-12-07T16:31:27;3.90;99.90
53208;DHT22;39093;52.788;6.940;2022-12-07T16:33:57;4.00;99.90
53208;DHT22;39093;52.788;6.940;2022-12-07T16:36:24;3.90;99.90
53208;DHT22;39093;52.788;6.940;2022-12-07T16:39:13;3.90;99.90
53208;DHT22;39093;52.788;6.940;2022-12-07T16:41:40;3.90;99.90
53208;DHT22;39093;52.788;6.940;2022-12-07T16:44:10;3.80;99.90
53208;DHT22;39093;52.788;6.940;2022-12-07T16:46:37;3.80;99.90
53208;DHT22;39093;52.788;6.940;2022-12-07T16:49:04;3.80;99.90
53208;DHT22;39093;52.788;6.940;2022-12-07T16:51:32;3.80;99.90
53208;DHT22;39093;52.788;6.940;2022-12-07T16:54:01;3.80;99.90
53208;DHT22;39093;52.788;6.940;2022-12-07T16:56:28;3.80;99.90
53208;DHT22;39093;52.788;6.940;2022-12-07T16:58:58;3.80;99.90
53208;DHT22;39093;52.788;6.940;2022-12-07T17:01:25;3.80;99.90
53208;DHT22;39093;52.788;6.940;2022-12-07T17:03:56;3.80;99.90
53208;DHT22;39093;52.788;6.940;2022-12-07T17:06:26;3.80;99.90
53208;DHT22;39093;52.788;6.940;2022-12-07T17:08:55;3.80;99.90
53208;DHT22;39093;52.788;6.940;2022-12-07T17:11:24;3.80;99.90
53208;DHT22;39093;52.788;6.940;2022-12-07T17:13:52;3.90;99.90
53208;DHT22;39093;52.788;6.940;2022-12-07T17:16:38;3.80;99.90
53208;DHT22;39093;52.788;6.940;2022-12-07T17:19:06;3.80;99.90
53208;DHT22;39093;52.788;6.940;2022-12-07T17:21:34;3.80;99.90
53208;DHT22;39093;52.788;6.940;2022-12-07T17:24:03;3.90;99.90
53208;DHT22;39093;52.788;6.940;2022-12-07T17:26:30;3.70;99.90
53208;DHT22;39093;52.788;6.940;2022-12-07T17:29:03;4.10;99.90
53208;DHT22;39093;52.788;6.940;2022-12-07T17:31:30;3.70;99.90
53208;DHT22;39093;52.788;6.940;2022-12-07T17:33:59;3.70;99.90
53208;DHT22;39093;52.788;6.940;2022-12-07T17:36:29;3.80;99.90
53208;DHT22;39093;52.788;6.940;2022-12-07T17:38:57;3.70;99.90
53208;DHT22;39093;52.788;6.940;2022-12-07T17:41:26;3.70;99.90
53208;DHT22;39093;52.788;6.940;2022-12-07T17:44:14;3.60;99.90
53208;DHT22;39093;52.788;6.940;2022-12-07T17:46:42;3.70;99.90
53208;DHT22;39093;52.788;6.940;2022-12-07T17:49:09;3.60;99.90
53208;DHT22;39093;52.788;6.940;2022-12-07T17:51:36;3.50;99.90
53208;DHT22;39093;52.788;6.940;2022-12-07T17:54:22;3.60;99.90
53208;DHT22;39093;52.788;6.940;2022-12-07T17:56:49;3.50;99.90
53208;DHT22;39093;52.788;6.940;2022-12-07T17:59:16;3.50;99.90
53208;DHT22;39093;52.788;6.940;2022-12-07T18:01:43;3.50;99.90
53208;DHT22;39093;52.788;6.940;2022-12-07T18:04:10;3.50;99.90
53208;DHT22;39093;52.788;6.940;2022-12-07T18:06:38;3.50;99.90
53208;DHT22;39093;52.788;6.940;2022-12-07T18:09:05;3.40;99.90
53208;DHT22;39093;52.788;6.940;2022-12-07T18:11:33;3.50;99.90
53208;DHT22;39093;52.788;6.940;2022-12-07T18:14:00;3.40;99.90
53208;DHT22;39093;52.788;6.940;2022-12-07T18:16:29;3.40;99.90
53208;DHT22;39093;52.788;6.940;2022-12-07T18:19:05;3.40;99.90
53208;DHT22;39093;52.788;6.940;2022-12-07T18:21:32;3.40;99.90
53208;DHT22;39093;52.788;6.940;2022-12-07T18:24:00;3.40;99.90
53208;DHT22;39093;52.788;6.940;2022-12-07T18:26:29;3.40;99.90
53208;DHT22;39093;52.788;6.940;2022-12-07T18:28:59;3.40;99.90
53208;DHT22;39093;52.788;6.940;2022-12-07T18:31:26;3.40;99.90
53208;DHT22;39093;52.788;6.940;2022-12-07T18:33:54;3.40;99.90